createdAt,value
2019-03-03T00:00:33.124Z,5.00
2019-03-03T00:03:01.876Z,5.00
2019-03-03T00:05:30.681Z,5.00
2019-03-03T00:07:59.473Z,5.10
2019-03-03T00:10:28.332Z,5.20
2019-03-03T00:12:57.450Z,5.20
2019-03-03T00:15:26.263Z,5.20
2019-03-03T00:17:55.054Z,5.20
2019-03-03T00:20:23.828Z,5.20
2019-03-03T00:22:52.598Z,5.30
2019-03-03T00:25:21.373Z,5.30
2019-03-03T00:27:50.157Z,5.30
2019-03-03T00:30:20.159Z,5.30
2019-03-03T00:32:48.957Z,5.30
2019-03-03T00:35:17.852Z,5.40
2019-03-03T00:37:54.281Z,5.40
2019-03-03T00:40:27.229Z,5.40
2019-03-03T00:42:57.657Z,5.40
2019-03-03T00:45:44.297Z,5.40
2019-03-03T00:48:14.694Z,5.50
2019-03-03T00:50:56.895Z,5.50
2019-03-03T00:53:36.157Z,5.60
2019-03-03T00:56:09.589Z,5.60
2019-03-03T00:58:40.040Z,5.60
2019-03-03T01:01:26.377Z,5.50
2019-03-03T01:04:02.615Z,5.60
2019-03-03T01:06:35.895Z,5.60
2019-03-03T01:09:15.440Z,5.60
2019-03-03T01:12:00.772Z,5.70
2019-03-03T01:14:34.153Z,5.70
2019-03-03T01:17:16.714Z,5.70
2019-03-03T01:19:49.884Z,5.70
2019-03-03T01:22:20.301Z,5.70
2019-03-03T01:24:53.377Z,5.70
2019-03-03T01:27:22.157Z,5.70
2019-03-03T01:29:50.926Z,5.70
2019-03-03T01:32:19.679Z,5.70
2019-03-03T01:34:48.464Z,5.70
2019-03-03T01:37:17.217Z,5.60
2019-03-03T01:39:46.001Z,5.60
2019-03-03T01:42:14.798Z,5.60
2019-03-03T01:44:43.629Z,5.60
2019-03-03T01:47:12.405Z,5.60
2019-03-03T01:49:41.172Z,5.60
2019-03-03T01:52:09.961Z,5.60
2019-03-03T01:54:38.752Z,5.60
2019-03-03T01:57:07.600Z,5.60
2019-03-03T01:59:36.380Z,5.60
2019-03-03T02:02:05.397Z,5.70
2019-03-03T02:04:34.161Z,5.70
2019-03-03T02:07:03.007Z,5.70
2019-03-03T02:09:31.944Z,5.80
2019-03-03T02:12:00.717Z,5.80
2019-03-03T02:14:29.508Z,5.80
2019-03-03T02:16:58.338Z,5.90
2019-03-03T02:19:27.164Z,5.80
2019-03-03T02:21:55.920Z,5.80
2019-03-03T02:24:24.701Z,5.90
2019-03-03T02:26:53.529Z,5.90
2019-03-03T02:29:22.265Z,5.90
2019-03-03T02:31:51.070Z,5.90
2019-03-03T02:34:19.901Z,5.90
2019-03-03T02:36:48.916Z,6.00
2019-03-03T02:39:17.701Z,6.00
2019-03-03T02:41:46.555Z,6.00
2019-03-03T02:44:15.563Z,6.00
2019-03-03T02:46:44.344Z,6.00
2019-03-03T02:49:13.073Z,6.10
2019-03-03T02:51:41.830Z,6.00
2019-03-03T02:54:10.581Z,6.00
2019-03-03T02:56:39.345Z,6.00
2019-03-03T02:59:08.141Z,6.00
2019-03-03T03:01:38.546Z,6.00
2019-03-03T03:04:07.391Z,6.10
2019-03-03T03:06:43.750Z,6.10
2019-03-03T03:09:14.400Z,6.10
2019-03-03T03:11:56.715Z,6.10
2019-03-03T03:14:29.842Z,6.20
2019-03-03T03:17:00.289Z,6.20
2019-03-03T03:19:30.920Z,6.20
2019-03-03T03:22:16.218Z,6.20
2019-03-03T03:24:49.814Z,6.30
2019-03-03T03:27:28.981Z,6.30
2019-03-03T03:30:05.213Z,6.30
2019-03-03T03:32:35.845Z,6.30
2019-03-03T03:35:08.498Z,6.30
2019-03-03T03:37:57.030Z,6.30
2019-03-03T03:40:33.176Z,6.30
2019-03-03T03:43:06.536Z,6.30
2019-03-03T03:45:39.530Z,6.30
2019-03-03T03:48:21.738Z,6.40
2019-03-03T03:51:08.142Z,6.40
2019-03-03T03:53:44.587Z,6.40
2019-03-03T03:56:32.894Z,6.40
2019-03-03T03:59:15.225Z,6.40
2019-03-03T04:02:00.453Z,6.40
2019-03-03T04:04:42.645Z,6.40
2019-03-03T04:07:15.751Z,6.40
2019-03-03T04:09:49.177Z,6.40
2019-03-03T04:12:35.588Z,6.40
2019-03-03T04:15:13.472Z,6.40
2019-03-03T04:17:43.919Z,6.40
2019-03-03T04:20:23.187Z,6.40
2019-03-03T04:23:09.616Z,6.40
2019-03-03T04:25:52.092Z,6.50
2019-03-03T04:28:22.521Z,6.50
2019-03-03T04:31:11.166Z,6.50
2019-03-03T04:33:47.133Z,6.60
2019-03-03T04:36:33.514Z,6.60
2019-03-03T04:39:06.659Z,6.70
2019-03-03T04:41:55.063Z,6.70
2019-03-03T04:44:34.101Z,6.70
2019-03-03T04:47:20.533Z,6.70
2019-03-03T04:50:08.794Z,6.70
2019-03-03T04:52:39.221Z,6.80
2019-03-03T04:55:12.884Z,6.80
2019-03-03T04:57:43.264Z,6.80
2019-03-03T05:00:14.222Z,6.90
2019-03-03T05:02:59.818Z,6.90
2019-03-03T05:05:30.235Z,6.90
2019-03-03T05:08:00.756Z,7.00
2019-03-03T05:10:31.142Z,7.00
2019-03-03T05:13:01.583Z,7.10
2019-03-03T05:15:40.724Z,7.10
2019-03-03T05:18:13.785Z,7.30
2019-03-03T05:20:46.844Z,7.30
2019-03-03T05:23:16.183Z,7.40
2019-03-03T05:25:45.060Z,7.40
2019-03-03T05:28:14.446Z,7.50
2019-03-03T05:30:43.187Z,7.50
2019-03-03T05:33:11.963Z,7.50
2019-03-03T05:35:40.765Z,7.50
2019-03-03T05:38:09.530Z,7.60
2019-03-03T05:40:38.292Z,7.60
2019-03-03T05:43:07.088Z,7.60
2019-03-03T05:45:36.293Z,7.50
2019-03-03T05:48:05.054Z,7.50
2019-03-03T05:50:33.801Z,7.50
2019-03-03T05:53:02.551Z,7.60
2019-03-03T05:55:31.329Z,7.60
2019-03-03T05:58:00.081Z,7.70
2019-03-03T06:00:28.899Z,7.70
2019-03-03T06:02:58.001Z,7.70
2019-03-03T06:05:26.756Z,7.80
2019-03-03T06:07:55.875Z,7.80
2019-03-03T06:10:24.710Z,7.90
2019-03-03T06:12:53.511Z,7.90
2019-03-03T06:15:22.314Z,8.00
2019-03-03T06:17:51.067Z,8.10
2019-03-03T06:20:19.830Z,8.20
2019-03-03T06:22:48.642Z,8.20
2019-03-03T06:25:17.385Z,8.20
2019-03-03T06:27:46.181Z,8.30
2019-03-03T06:30:15.793Z,8.30
2019-03-03T06:32:44.659Z,8.40
2019-03-03T06:35:13.452Z,8.50
2019-03-03T06:37:42.273Z,8.50
2019-03-03T06:40:11.583Z,8.50
2019-03-03T06:42:40.336Z,8.60
2019-03-03T06:45:11.652Z,8.50
2019-03-03T06:47:40.399Z,8.60
2019-03-03T06:50:13.117Z,8.60
2019-03-03T06:52:41.876Z,8.70
2019-03-03T06:55:10.644Z,8.70
2019-03-03T06:57:39.413Z,8.80
2019-03-03T07:00:11.104Z,8.80
2019-03-03T07:02:39.909Z,8.90
2019-03-03T07:05:10.351Z,8.90
2019-03-03T07:07:39.273Z,9.00
2019-03-03T07:10:10.732Z,9.00
2019-03-03T07:12:39.493Z,9.10
2019-03-03T07:15:11.034Z,9.10
2019-03-03T07:17:39.801Z,9.10
2019-03-03T07:20:12.902Z,9.20
2019-03-03T07:22:41.925Z,9.20
2019-03-03T07:25:13.195Z,9.30
2019-03-03T07:27:42.036Z,9.40
2019-03-03T07:30:14.995Z,9.40
2019-03-03T07:32:54.181Z,9.40
2019-03-03T07:35:22.921Z,9.40
2019-03-03T07:37:51.653Z,9.50
2019-03-03T07:40:20.462Z,9.60
2019-03-03T07:42:49.460Z,9.60
2019-03-03T07:45:18.212Z,9.60
2019-03-03T07:47:46.977Z,9.70
2019-03-03T07:50:15.734Z,9.70
2019-03-03T07:52:44.514Z,9.80
2019-03-03T07:55:14.143Z,9.80
2019-03-03T07:57:42.987Z,9.90
2019-03-03T08:00:13.839Z,9.90
2019-03-03T08:02:42.615Z,10.00
2019-03-03T08:05:11.981Z,10.00
2019-03-03T08:07:40.729Z,10.00
2019-03-03T08:10:13.834Z,10.00
2019-03-03T08:12:42.568Z,10.10
2019-03-03T08:15:14.053Z,10.20
2019-03-03T08:17:42.822Z,10.30
2019-03-03T08:20:12.837Z,10.30
2019-03-03T08:22:41.730Z,10.40
2019-03-03T08:25:12.580Z,10.50
2019-03-03T08:27:41.387Z,10.60
2019-03-03T08:30:14.938Z,10.80
2019-03-03T08:32:43.747Z,10.90
2019-03-03T08:35:23.272Z,10.80
2019-03-03T08:37:52.028Z,10.80
2019-03-03T08:40:20.836Z,10.90
2019-03-03T08:42:54.208Z,10.90
2019-03-03T08:45:30.577Z,10.90
2019-03-03T08:48:06.938Z,10.80
2019-03-03T08:50:55.296Z,10.80
2019-03-03T08:53:41.901Z,10.80
2019-03-03T08:56:30.188Z,10.80
2019-03-03T08:59:06.331Z,10.70
2019-03-03T09:01:51.445Z,10.80
2019-03-03T09:04:24.698Z,10.80
2019-03-03T09:07:00.848Z,10.80
2019-03-03T09:09:34.170Z,10.70
2019-03-03T09:12:04.532Z,10.50
2019-03-03T09:14:49.975Z,10.50
2019-03-03T09:17:32.416Z,10.50
2019-03-03T09:20:05.525Z,10.60
2019-03-03T09:22:44.809Z,10.60
2019-03-03T09:25:26.656Z,10.60
2019-03-03T09:28:13.323Z,10.70
2019-03-03T09:31:00.244Z,10.70
2019-03-03T09:33:46.607Z,10.80
2019-03-03T09:36:33.340Z,10.80
2019-03-03T09:39:15.837Z,10.90
2019-03-03T09:41:48.973Z,10.90
2019-03-03T09:44:31.388Z,10.90
2019-03-03T09:47:01.875Z,11.00
2019-03-03T09:49:32.344Z,11.10
2019-03-03T09:52:20.624Z,11.10
2019-03-03T09:54:53.748Z,11.20
2019-03-03T09:57:30.101Z,11.30
2019-03-03T10:00:12.310Z,11.30
2019-03-03T10:02:42.793Z,11.20
2019-03-03T10:05:14.742Z,10.90
2019-03-03T10:07:45.170Z,10.80
2019-03-03T10:10:33.768Z,10.70
2019-03-03T10:13:19.063Z,10.70
2019-03-03T10:15:49.467Z,10.80
2019-03-03T10:18:19.985Z,10.80
2019-03-03T10:21:06.443Z,10.90
2019-03-03T10:23:42.785Z,11.00
2019-03-03T10:26:22.146Z,11.00
2019-03-03T10:28:58.180Z,11.10
2019-03-03T10:31:31.477Z,11.10
2019-03-03T10:34:13.553Z,11.20
2019-03-03T10:36:46.962Z,11.20
2019-03-03T10:39:26.363Z,11.30
2019-03-03T10:42:02.688Z,11.30
2019-03-03T10:44:38.504Z,11.30
2019-03-03T10:47:17.985Z,11.40
2019-03-03T10:50:03.232Z,11.40
2019-03-03T10:52:36.532Z,11.50
2019-03-03T10:55:08.788Z,11.30
2019-03-03T10:57:51.086Z,11.00
2019-03-03T11:00:36.528Z,10.90
2019-03-03T11:03:24.548Z,10.90
2019-03-03T11:06:10.940Z,10.80
2019-03-03T11:08:41.345Z,10.80
2019-03-03T11:11:23.637Z,10.90
2019-03-03T11:14:12.866Z,11.10
2019-03-03T11:16:51.753Z,11.20
2019-03-03T11:19:38.094Z,11.30
2019-03-03T11:22:11.598Z,11.40
2019-03-03T11:24:44.700Z,11.50
2019-03-03T11:27:23.876Z,11.50
2019-03-03T11:29:57.249Z,11.60
2019-03-03T11:32:39.867Z,11.60
2019-03-03T11:35:16.165Z,11.60
2019-03-03T11:37:46.820Z,11.60
2019-03-03T11:40:17.243Z,11.60
2019-03-03T11:42:51.224Z,11.70
2019-03-03T11:45:27.233Z,11.70
2019-03-03T11:48:04.417Z,11.70
2019-03-03T11:50:53.112Z,11.70
2019-03-03T11:53:32.103Z,11.60
2019-03-03T11:56:14.182Z,11.60
2019-03-03T11:58:44.556Z,11.50
2019-03-03T12:01:30.005Z,11.40
2019-03-03T12:04:00.397Z,11.30
2019-03-03T12:06:33.546Z,11.30
2019-03-03T12:09:10.144Z,11.20
2019-03-03T12:11:40.878Z,11.20
2019-03-03T12:14:17.328Z,11.20
2019-03-03T12:16:53.917Z,11.20
2019-03-03T12:19:30.416Z,11.10
2019-03-03T12:22:16.121Z,11.00
2019-03-03T12:24:49.102Z,10.90
2019-03-03T12:27:22.212Z,10.80
2019-03-03T12:29:55.281Z,10.80
2019-03-03T12:32:34.728Z,10.80
2019-03-03T12:35:05.520Z,10.80
2019-03-03T12:37:36.107Z,10.80
2019-03-03T12:40:12.255Z,10.80
2019-03-03T12:42:42.675Z,10.70
2019-03-03T12:45:21.894Z,10.70
2019-03-03T12:47:58.400Z,10.80
2019-03-03T12:50:44.866Z,10.70
2019-03-03T12:53:21.313Z,10.80
2019-03-03T12:55:51.744Z,10.90
2019-03-03T12:58:27.717Z,11.00
2019-03-03T13:01:00.825Z,11.00
2019-03-03T13:03:31.220Z,11.10
2019-03-03T13:06:07.977Z,11.10
2019-03-03T13:08:47.293Z,11.20
2019-03-03T13:11:26.432Z,11.30
2019-03-03T13:13:57.130Z,11.30
2019-03-03T13:16:36.465Z,11.30
2019-03-03T13:19:24.725Z,11.30
2019-03-03T13:22:04.339Z,11.30
2019-03-03T13:24:40.567Z,11.30
2019-03-03T13:27:16.707Z,11.20
2019-03-03T13:29:53.242Z,11.20
2019-03-03T13:32:23.729Z,11.20
2019-03-03T13:34:57.089Z,11.30
2019-03-03T13:37:30.135Z,11.40
2019-03-03T13:40:06.706Z,11.50
2019-03-03T13:42:42.500Z,11.60
2019-03-03T13:45:12.621Z,11.70
2019-03-03T13:47:41.482Z,11.70
2019-03-03T13:50:13.266Z,11.70
2019-03-03T13:52:42.110Z,11.70
2019-03-03T13:55:12.180Z,11.70
2019-03-03T13:57:41.018Z,11.80
2019-03-03T14:00:21.249Z,11.80
2019-03-03T14:02:50.141Z,11.80
2019-03-03T14:05:20.685Z,11.90
2019-03-03T14:07:51.146Z,11.90
2019-03-03T14:10:20.023Z,11.90
2019-03-03T14:12:48.801Z,12.00
2019-03-03T14:15:19.188Z,12.00
2019-03-03T14:17:48.101Z,12.00
2019-03-03T14:20:19.554Z,12.00
2019-03-03T14:22:48.479Z,11.90
2019-03-03T14:25:17.584Z,11.90
2019-03-03T14:27:46.436Z,11.70
2019-03-03T14:30:20.592Z,11.70
2019-03-03T14:32:49.429Z,11.70
2019-03-03T14:35:18.237Z,11.70
2019-03-03T14:37:47.238Z,11.60
2019-03-03T14:40:22.857Z,11.60
2019-03-03T14:42:52.034Z,11.50
2019-03-03T14:45:21.086Z,11.40
2019-03-03T14:47:49.870Z,11.30
2019-03-03T14:50:21.226Z,11.20
2019-03-03T14:52:52.346Z,11.20
2019-03-03T14:55:21.427Z,11.10
2019-03-03T14:57:50.533Z,11.10
2019-03-03T15:00:31.922Z,11.20
2019-03-03T15:03:02.405Z,11.10
2019-03-03T15:05:31.518Z,11.00
2019-03-03T15:08:00.651Z,10.90
2019-03-03T15:10:29.441Z,10.80
2019-03-03T15:12:58.509Z,10.80
2019-03-03T15:15:29.913Z,10.90
2019-03-03T15:17:58.758Z,10.90
2019-03-03T15:20:27.986Z,10.80
2019-03-03T15:22:56.881Z,10.80
2019-03-03T15:25:25.731Z,10.70
2019-03-03T15:27:54.708Z,10.60
2019-03-03T15:30:24.277Z,10.50
2019-03-03T15:32:53.019Z,10.50
2019-03-03T15:35:21.837Z,10.40
2019-03-03T15:37:50.723Z,10.30
2019-03-03T15:40:24.781Z,10.20
2019-03-03T15:42:53.889Z,10.10
2019-03-03T15:45:27.125Z,10.20
2019-03-03T15:47:55.976Z,10.10
2019-03-03T15:50:24.801Z,10.00
2019-03-03T15:52:53.575Z,10.00
2019-03-03T15:55:24.894Z,9.90
2019-03-03T15:57:53.733Z,9.80
2019-03-03T16:00:27.706Z,9.80
2019-03-03T16:02:56.784Z,9.80
2019-03-03T16:05:25.605Z,9.80
2019-03-03T16:07:54.776Z,9.70
2019-03-03T16:10:27.286Z,9.70
2019-03-03T16:12:56.194Z,9.60
2019-03-03T16:15:25.034Z,9.60
2019-03-03T16:17:53.807Z,9.60
2019-03-03T16:20:23.430Z,9.60
2019-03-03T16:22:52.277Z,9.60
2019-03-03T16:25:23.047Z,9.60
2019-03-03T16:27:51.877Z,9.50
2019-03-03T16:30:21.826Z,9.50
2019-03-03T16:32:50.761Z,9.50
2019-03-03T16:35:20.045Z,9.50
2019-03-03T16:37:48.901Z,9.50
2019-03-03T16:40:26.704Z,9.50
2019-03-03T16:42:55.478Z,9.50
2019-03-03T16:45:24.254Z,9.50
2019-03-03T16:47:53.115Z,9.50
2019-03-03T16:50:23.050Z,9.40
2019-03-03T16:52:52.011Z,9.40
2019-03-03T16:55:21.605Z,9.40
2019-03-03T16:57:50.552Z,9.40
2019-03-03T17:00:24.241Z,9.40
2019-03-03T17:02:53.143Z,9.40
2019-03-03T17:05:24.253Z,9.40
2019-03-03T17:07:53.008Z,9.40
2019-03-03T17:10:21.905Z,9.40
2019-03-03T17:12:50.781Z,9.40
2019-03-03T17:15:27.329Z,9.40
2019-03-03T17:17:56.176Z,9.40
2019-03-03T17:20:25.004Z,9.40
2019-03-03T17:22:53.793Z,9.40
2019-03-03T17:25:23.784Z,9.50
2019-03-03T17:27:52.577Z,9.50
2019-03-03T17:30:23.584Z,9.50
2019-03-03T17:32:52.374Z,9.50
2019-03-03T17:35:21.267Z,9.50
2019-03-03T17:37:50.014Z,9.50
2019-03-03T17:40:23.690Z,9.50
2019-03-03T17:42:52.609Z,9.50
2019-03-03T17:45:23.457Z,9.50
2019-03-03T17:47:52.500Z,9.50
2019-03-03T17:50:27.265Z,9.50
2019-03-03T17:52:56.797Z,9.50
2019-03-03T17:55:25.578Z,9.50
2019-03-03T17:57:54.354Z,9.50
2019-03-03T18:00:29.080Z,9.60
2019-03-03T18:02:57.923Z,9.60
2019-03-03T18:05:26.695Z,9.60
2019-03-03T18:07:55.466Z,9.60
2019-03-03T18:10:24.430Z,9.60
2019-03-03T18:12:53.288Z,9.60
2019-03-03T18:15:22.185Z,9.60
2019-03-03T18:17:51.015Z,9.70
2019-03-03T18:20:21.953Z,9.70
2019-03-03T18:22:50.778Z,9.70
2019-03-03T18:25:20.553Z,9.70
2019-03-03T18:27:52.002Z,9.70
2019-03-03T18:30:25.130Z,9.80
2019-03-03T18:32:53.906Z,9.80
2019-03-03T18:35:22.831Z,9.80
2019-03-03T18:37:51.663Z,9.80
2019-03-03T18:40:22.018Z,9.80
2019-03-03T18:42:50.862Z,9.80
2019-03-03T18:45:20.980Z,9.80
2019-03-03T18:47:50.277Z,9.90
2019-03-03T18:50:27.771Z,9.80
2019-03-03T18:52:56.630Z,9.80
2019-03-03T18:55:25.378Z,9.80
2019-03-03T18:57:54.124Z,9.80
2019-03-03T19:00:25.028Z,9.70
2019-03-03T19:02:54.088Z,9.80
2019-03-03T19:05:22.916Z,9.80
2019-03-03T19:07:52.036Z,9.80
2019-03-03T19:10:26.685Z,9.80
2019-03-03T19:12:55.948Z,9.90
2019-03-03T19:15:24.766Z,9.90
2019-03-03T19:17:53.718Z,9.90
2019-03-03T19:20:22.877Z,9.90
2019-03-03T19:22:51.823Z,9.90
2019-03-03T19:25:20.741Z,9.90
2019-03-03T19:27:49.524Z,9.90
2019-03-03T19:30:21.459Z,9.90
2019-03-03T19:33:02.049Z,9.90
2019-03-03T19:35:31.400Z,10.00
2019-03-03T19:38:00.686Z,10.00
2019-03-03T19:40:29.477Z,10.00
2019-03-03T19:42:58.517Z,10.00
2019-03-03T19:45:35.444Z,10.10
2019-03-03T19:48:04.688Z,10.00
2019-03-03T19:50:33.517Z,10.00
2019-03-03T19:53:02.253Z,10.10
2019-03-03T19:55:31.057Z,10.10
2019-03-03T19:57:59.844Z,10.10
2019-03-03T20:00:38.913Z,10.20
2019-03-03T20:03:06.879Z,10.20
2019-03-03T20:05:35.632Z,10.20
2019-03-03T20:08:05.048Z,10.20
2019-03-03T20:10:34.115Z,10.20
2019-03-03T20:13:02.889Z,10.20
2019-03-03T20:15:31.711Z,10.20
2019-03-03T20:18:00.484Z,10.20
2019-03-03T20:20:29.344Z,10.20
2019-03-03T20:22:58.093Z,10.30
2019-03-03T20:25:26.841Z,10.30
2019-03-03T20:27:55.629Z,10.30
2019-03-03T20:30:27.383Z,10.30
2019-03-03T20:32:56.210Z,10.30
2019-03-03T20:35:25.014Z,10.30
2019-03-03T20:37:53.873Z,10.40
2019-03-03T20:40:26.491Z,10.40
2019-03-03T20:42:55.710Z,10.40
2019-03-03T20:45:28.878Z,10.40
2019-03-03T20:47:57.635Z,10.40
2019-03-03T20:50:26.569Z,10.40
2019-03-03T20:52:55.441Z,10.50
2019-03-03T20:55:29.285Z,10.50
2019-03-03T20:57:58.092Z,10.50
2019-03-03T21:00:30.873Z,10.50
2019-03-03T21:02:59.737Z,10.50
2019-03-03T21:05:28.477Z,10.50
2019-03-03T21:07:57.273Z,10.50
2019-03-03T21:10:33.627Z,10.50
2019-03-03T21:13:02.382Z,10.50
2019-03-03T21:15:31.268Z,10.50
2019-03-03T21:18:00.102Z,10.50
2019-03-03T21:20:28.833Z,10.50
2019-03-03T21:22:57.623Z,10.50
2019-03-03T21:25:26.363Z,10.60
2019-03-03T21:27:55.151Z,10.50
2019-03-03T21:30:29.746Z,10.50
2019-03-03T21:32:58.473Z,10.60
2019-03-03T21:35:27.373Z,10.60
2019-03-03T21:37:56.084Z,10.60
2019-03-03T21:40:26.724Z,10.60
2019-03-03T21:42:55.759Z,10.60
2019-03-03T21:45:26.601Z,10.60
2019-03-03T21:47:56.110Z,10.60
2019-03-03T21:50:28.667Z,10.60
2019-03-03T21:52:57.500Z,10.60
2019-03-03T21:55:26.311Z,10.60
2019-03-03T21:57:55.063Z,10.60
2019-03-03T22:00:32.684Z,10.60
2019-03-03T22:03:01.512Z,10.60
2019-03-03T22:05:30.256Z,10.60
2019-03-03T22:07:59.033Z,10.60
2019-03-03T22:10:31.703Z,10.60
2019-03-03T22:13:06.366Z,10.50
2019-03-03T22:15:35.174Z,10.40
2019-03-03T22:18:03.954Z,10.40
2019-03-03T22:20:32.760Z,10.30
2019-03-03T22:23:01.750Z,10.20
2019-03-03T22:25:31.390Z,10.20
2019-03-03T22:28:00.148Z,10.10
2019-03-03T22:30:29.513Z,10.00
2019-03-03T22:32:58.337Z,9.90
2019-03-03T22:35:27.093Z,9.90
2019-03-03T22:37:55.840Z,9.90
2019-03-03T22:40:25.153Z,9.80
2019-03-03T22:42:53.997Z,9.70
2019-03-03T22:45:23.041Z,9.70
2019-03-03T22:47:51.914Z,9.70
2019-03-03T22:50:21.237Z,9.70
2019-03-03T22:52:50.056Z,9.70
2019-03-03T22:55:20.170Z,9.70
2019-03-03T22:57:49.010Z,9.70
2019-03-03T23:00:52.341Z,9.70
2019-03-03T23:03:36.353Z,9.70
2019-03-03T23:06:19.965Z,9.70
2019-03-03T23:08:54.469Z,9.80
2019-03-03T23:11:34.611Z,9.80
2019-03-03T23:14:15.453Z,9.80
2019-03-03T23:17:03.521Z,9.80
2019-03-03T23:19:50.303Z,9.90
2019-03-03T23:22:22.234Z,9.90
2019-03-03T23:24:56.679Z,10.00
2019-03-03T23:27:25.419Z,10.00
2019-03-03T23:29:54.526Z,10.00
2019-03-03T23:32:23.273Z,10.10
2019-03-03T23:34:53.002Z,10.10
2019-03-03T23:37:21.779Z,10.10
2019-03-03T23:39:50.927Z,10.20
2019-03-03T23:42:19.749Z,10.20
2019-03-03T23:44:48.552Z,10.20
2019-03-03T23:47:17.528Z,10.30
2019-03-03T23:49:46.314Z,10.30
2019-03-03T23:52:15.067Z,10.30
2019-03-03T23:54:43.847Z,10.40
2019-03-03T23:57:12.695Z,10.40
2019-03-03T23:59:41.441Z,10.40
